Main page
METAR-TAF:

METAR-TAF

Airports :

Pittsburgh International Airport

Pittsburgh, Pennsylvania, United States

latitude: 40-30-14N, longitude: 080-15-59W, elevation: 366 m

Current weather observation

The report was made 46 minutes ago, at 08:51 UTC
Wind 6 kt from the West
Temperature -11°C
Humidity 78%
Pressure 1033 hPa
Visibility: 16.1 km
Clear sky

METAR: KPIT 210851Z 28006KT 10SM CLR M11/M14 A3050 RMK AO2 SLP357 T11111144 57006

Time: 04:37 (09:37 UTC)

Forecast

The report was made 41 minutes ago, at 08:56 UTC
Forecast valid from 21 at 09 UTC to 22 at 12 UTC
Wind 8 kt from the West
Visibility: 10 km
Clear sky

TAF: KPIT 210856Z 2109/2212 26008KT P6SM SKC

Weather observations and forecasts of more than 4000 airports (METAR and TAF reports).

The available stations are represented by yellow and red dots on the map.

Hover mouse over dot to see the name of the station.

Then click to see weather observations and forecasts.

To change the map : click on the green buttons with a black cross to zoom in, on the green button with a dash to zoom out, or on the green arrows for adjacent maps.


METAR-TAF: